Terminal Aerodrome Forecast
Issued by NWS Corpus Christi, TX

Home | Current Version | Previous Version | Text Only | Print | Product List | Glossary On
Versions: 1 2 3 4 5 6 7 8 9 10 11 12 13 14 15
000
FTUS44 KCRP 211700
TAFVCT
TAF
KVCT 211734Z 2118/2218 17006KT P6SM BKN015 OVC035
     FM212200 13005KT P6SM SCT025 BKN050
     FM220200 15006KT P6SM OVC015
     FM220700 19004KT 3SM BR OVC006
     FM221000 VRB03KT 1SM BR OVC003
     FM221530 24005KT 4SM BR BKN008
     FM221700 22008KT P6SM SCT020=

USA.gov is the U.S. government's official web portal to all federal, state and local government web resources and services.